sensor_id;sensor_type;location;lat;lon;timestamp;pressure;altitude;pressure_sealevel;temperature;humidity
49515;BME280;35415;47.870;16.058;2024-01-15T00:01:15;95909.47;;;-3.76;89.21
49515;BME280;35415;47.870;16.058;2024-01-15T00:03:42;95938.19;;;-3.43;89.54
49515;BME280;35415;47.870;16.058;2024-01-15T00:06:10;95885.84;;;-3.76;89.17
49515;BME280;35415;47.870;16.058;2024-01-15T00:08:39;95810.66;;;-4.09;89.10
49515;BME280;35415;47.870;16.058;2024-01-15T00:11:06;95802.84;;;-4.15;89.25
49515;BME280;35415;47.870;16.058;2024-01-15T00:13:33;95897.06;;;-3.63;89.58
49515;BME280;35415;47.870;16.058;2024-01-15T00:16:01;95906.28;;;-3.53;89.69
49515;BME280;35415;47.870;16.058;2024-01-15T00:18:29;95785.94;;;-4.26;89.81
49515;BME280;35415;47.870;16.058;2024-01-15T00:20:56;95820.72;;;-3.99;90.00
49515;BME280;35415;47.870;16.058;2024-01-15T00:23:23;95882.91;;;-3.61;90.25
49515;BME280;35415;47.870;16.058;2024-01-15T00:25:52;95832.03;;;-3.99;91.08
49515;BME280;35415;47.870;16.058;2024-01-15T00:28:20;95884.75;;;-3.62;90.97
49515;BME280;35415;47.870;16.058;2024-01-15T00:30:47;95888.16;;;-3.61;91.02
49515;BME280;35415;47.870;16.058;2024-01-15T00:33:15;95771.84;;;-4.32;90.79
49515;BME280;35415;47.870;16.058;2024-01-15T00:35:42;95882.13;;;-3.62;91.21
49515;BME280;35415;47.870;16.058;2024-01-15T00:38:10;95883.50;;;-3.59;91.11
49515;BME280;35415;47.870;16.058;2024-01-15T00:40:38;95875.84;;;-3.61;90.84
49515;BME280;35415;47.870;16.058;2024-01-15T00:43:07;95843.06;;;-3.90;90.91
49515;BME280;35415;47.870;16.058;2024-01-15T00:45:33;95863.78;;;-3.69;91.30
49515;BME280;35415;47.870;16.058;2024-01-15T00:48:01;95866.34;;;-3.62;91.38
49515;BME280;35415;47.870;16.058;2024-01-15T00:50:29;95827.09;;;-3.88;91.03
49515;BME280;35415;47.870;16.058;2024-01-15T00:52:56;95778.13;;;-4.08;91.20
49515;BME280;35415;47.870;16.058;2024-01-15T00:55:23;95821.81;;;-3.82;91.35
49515;BME280;35415;47.870;16.058;2024-01-15T00:57:51;95860.88;;;-3.60;91.09
49515;BME280;35415;47.870;16.058;2024-01-15T01:00:20;95840.00;;;-3.80;90.95
49515;BME280;35415;47.870;16.058;2024-01-15T01:02:47;95864.09;;;-3.58;90.92
49515;BME280;35415;47.870;16.058;2024-01-15T01:05:15;95849.41;;;-3.66;90.66
49515;BME280;35415;47.870;16.058;2024-01-15T01:07:42;95771.06;;;-4.07;90.56
49515;BME280;35415;47.870;16.058;2024-01-15T01:10:10;95789.19;;;-3.99;90.58
49515;BME280;35415;47.870;16.058;2024-01-15T01:12:37;95815.91;;;-3.77;90.51
49515;BME280;35415;47.870;16.058;2024-01-15T01:15:05;95744.50;;;-4.17;90.37
49515;BME280;35415;47.870;16.058;2024-01-15T01:17:35;95796.59;;;-3.89;90.27
49515;BME280;35415;47.870;16.058;2024-01-15T01:20:03;95849.84;;;-3.44;90.26
49515;BME280;35415;47.870;16.058;2024-01-15T01:22:32;95744.81;;;-4.07;90.38
49515;BME280;35415;47.870;16.058;2024-01-15T01:24:59;95787.59;;;-3.75;90.27
49515;BME280;35415;47.870;16.058;2024-01-15T01:27:27;95827.44;;;-3.53;90.14
49515;BME280;35415;47.870;16.058;2024-01-15T01:29:54;95856.69;;;-3.43;89.71
49515;BME280;35415;47.870;16.058;2024-01-15T01:32:22;95806.56;;;-3.67;90.00
49515;BME280;35415;47.870;16.058;2024-01-15T01:34:51;95797.88;;;-3.67;89.74
49515;BME280;35415;47.870;16.058;2024-01-15T01:37:19;95866.69;;;-3.27;89.69
49515;BME280;35415;47.870;16.058;2024-01-15T01:39:46;95861.34;;;-3.20;89.70
49515;BME280;35415;47.870;16.058;2024-01-15T01:42:14;95843.09;;;-3.34;89.15
49515;BME280;35415;47.870;16.058;2024-01-15T01:44:41;95855.69;;;-3.17;89.32
49515;BME280;35415;47.870;16.058;2024-01-15T01:47:09;95819.09;;;-3.44;89.09
49515;BME280;35415;47.870;16.058;2024-01-15T01:49:37;95789.22;;;-3.49;88.90
49515;BME280;35415;47.870;16.058;2024-01-15T01:52:07;95787.13;;;-3.41;88.77
49515;BME280;35415;47.870;16.058;2024-01-15T01:54:37;95810.06;;;-3.29;88.46
49515;BME280;35415;47.870;16.058;2024-01-15T01:57:06;95776.00;;;-3.43;88.29
49515;BME280;35415;47.870;16.058;2024-01-15T01:59:34;95784.72;;;-3.42;88.04
49515;BME280;35415;47.870;16.058;2024-01-15T02:02:03;95768.66;;;-3.34;88.12
49515;BME280;35415;47.870;16.058;2024-01-15T02:04:31;95809.81;;;-3.03;87.99
49515;BME280;35415;47.870;16.058;2024-01-15T02:07:00;95737.47;;;-3.49;87.75
49515;BME280;35415;47.870;16.058;2024-01-15T02:09:28;95773.50;;;-3.31;87.75
49515;BME280;35415;47.870;16.058;2024-01-15T02:11:55;95761.41;;;-3.39;87.85
49515;BME280;35415;47.870;16.058;2024-01-15T02:14:22;95717.72;;;-3.58;87.62
49515;BME280;35415;47.870;16.058;2024-01-15T02:16:50;95795.06;;;-3.04;87.46
49515;BME280;35415;47.870;16.058;2024-01-15T02:19:18;95799.25;;;-2.96;87.67
49515;BME280;35415;47.870;16.058;2024-01-15T02:21:45;95690.28;;;-3.62;87.44
49515;BME280;35415;47.870;16.058;2024-01-15T02:24:14;95776.81;;;-2.99;87.50
49515;BME280;35415;47.870;16.058;2024-01-15T02:26:42;95740.13;;;-3.30;87.15
49515;BME280;35415;47.870;16.058;2024-01-15T02:29:10;95773.78;;;-3.03;87.07
49515;BME280;35415;47.870;16.058;2024-01-15T02:31:39;95788.41;;;-2.88;87.21
49515;BME280;35415;47.870;16.058;2024-01-15T02:34:06;95681.25;;;-3.48;86.60
49515;BME280;35415;47.870;16.058;2024-01-15T02:36:34;95665.53;;;-3.54;86.73
49515;BME280;35415;47.870;16.058;2024-01-15T02:39:01;95735.66;;;-3.12;86.82
49515;BME280;35415;47.870;16.058;2024-01-15T02:41:30;95707.69;;;-3.24;86.96
49515;BME280;35415;47.870;16.058;2024-01-15T02:43:58;95765.13;;;-2.85;86.88
49515;BME280;35415;47.870;16.058;2024-01-15T02:46:25;95714.91;;;-3.20;87.19
49515;BME280;35415;47.870;16.058;2024-01-15T02:48:53;95752.69;;;-2.78;86.65
49515;BME280;35415;47.870;16.058;2024-01-15T02:51:20;95748.53;;;-2.85;86.78
49515;BME280;35415;47.870;16.058;2024-01-15T02:53:49;95775.56;;;-2.78;87.11
49515;BME280;35415;47.870;16.058;2024-01-15T02:56:17;95733.47;;;-2.96;87.10
49515;BME280;35415;47.870;16.058;2024-01-15T02:58:46;95749.16;;;-2.72;86.84
49515;BME280;35415;47.870;16.058;2024-01-15T03:01:14;95736.81;;;-2.71;86.79
49515;BME280;35415;47.870;16.058;2024-01-15T03:03:41;95756.03;;;-2.70;86.61
49515;BME280;35415;47.870;16.058;2024-01-15T03:06:10;95738.72;;;-2.78;86.48
49515;BME280;35415;47.870;16.058;2024-01-15T03:08:38;95735.06;;;-2.77;86.67
49515;BME280;35415;47.870;16.058;2024-01-15T03:11:05;95735.41;;;-2.74;86.88
49515;BME280;35415;47.870;16.058;2024-01-15T03:13:35;95730.13;;;-2.85;86.81
49515;BME280;35415;47.870;16.058;2024-01-15T03:16:05;95754.13;;;-2.63;86.56
49515;BME280;35415;47.870;16.058;2024-01-15T03:18:32;95766.03;;;-2.61;86.87
49515;BME280;35415;47.870;16.058;2024-01-15T03:21:00;95763.19;;;-2.59;86.62
49515;BME280;35415;47.870;16.058;2024-01-15T03:23:28;95719.59;;;-2.85;86.82
49515;BME280;35415;47.870;16.058;2024-01-15T03:25:55;95707.97;;;-2.96;86.52
49515;BME280;35415;47.870;16.058;2024-01-15T03:28:23;95749.44;;;-2.61;86.51
49515;BME280;35415;47.870;16.058;2024-01-15T03:30:51;95749.81;;;-2.58;87.27
49515;BME280;35415;47.870;16.058;2024-01-15T03:33:20;95718.75;;;-2.86;86.91
49515;BME280;35415;47.870;16.058;2024-01-15T03:35:47;95698.53;;;-3.04;86.60
49515;BME280;35415;47.870;16.058;2024-01-15T03:38:14;95656.25;;;-3.20;87.01
49515;BME280;35415;47.870;16.058;2024-01-15T03:40:42;95734.69;;;-2.62;87.24
49515;BME280;35415;47.870;16.058;2024-01-15T03:43:09;95755.56;;;-2.49;87.27
49515;BME280;35415;47.870;16.058;2024-01-15T03:45:37;95708.84;;;-2.84;87.44
49515;BME280;35415;47.870;16.058;2024-01-15T03:48:05;95755.19;;;-2.53;87.64
49515;BME280;35415;47.870;16.058;2024-01-15T03:50:34;95673.66;;;-3.01;87.67
49515;BME280;35415;47.870;16.058;2024-01-15T03:53:02;95763.38;;;-2.43;87.78
49515;BME280;35415;47.870;16.058;2024-01-15T03:55:29;95766.59;;;-2.40;87.75
49515;BME280;35415;47.870;16.058;2024-01-15T03:57:57;95765.34;;;-2.38;88.42
49515;BME280;35415;47.870;16.058;2024-01-15T04:00:24;95708.22;;;-2.67;88.28
49515;BME280;35415;47.870;16.058;2024-01-15T04:02:52;95750.34;;;-2.37;89.03
49515;BME280;35415;47.870;16.058;2024-01-15T04:05:20;95713.19;;;-2.59;88.75
49515;BME280;35415;47.870;16.058;2024-01-15T04:07:49;95756.00;;;-2.34;89.38
49515;BME280;35415;47.870;16.058;2024-01-15T04:10:17;95756.00;;;-2.34;89.55
49515;BME280;35415;47.870;16.058;2024-01-15T04:12:44;95762.63;;;-2.31;90.35
49515;BME280;35415;47.870;16.058;2024-01-15T04:15:12;95703.56;;;-2.54;90.15
49515;BME280;35415;47.870;16.058;2024-01-15T04:17:40;95676.50;;;-2.73;90.77
49515;BME280;35415;47.870;16.058;2024-01-15T04:20:08;95760.47;;;-2.23;91.01
49515;BME280;35415;47.870;16.058;2024-01-15T04:22:35;95758.19;;;-2.19;91.03
49515;BME280;35415;47.870;16.058;2024-01-15T04:25:06;95716.59;;;-2.29;90.80
49515;BME280;35415;47.870;16.058;2024-01-15T04:27:33;95746.09;;;-2.08;91.02
49515;BME280;35415;47.870;16.058;2024-01-15T04:30:01;95749.88;;;-2.04;91.40
49515;BME280;35415;47.870;16.058;2024-01-15T04:32:29;95731.09;;;-2.08;91.79
49515;BME280;35415;47.870;16.058;2024-01-15T04:34:56;95652.53;;;-2.53;91.62
49515;BME280;35415;47.870;16.058;2024-01-15T04:37:23;95756.69;;;-1.85;91.94
49515;BME280;35415;47.870;16.058;2024-01-15T04:39:51;95755.56;;;-1.77;92.26
49515;BME280;35415;47.870;16.058;2024-01-15T04:42:22;95747.53;;;-1.71;91.76
49515;BME280;35415;47.870;16.058;2024-01-15T04:44:50;95735.38;;;-1.72;92.01
49515;BME280;35415;47.870;16.058;2024-01-15T04:47:18;95758.22;;;-1.54;91.71
49515;BME280;35415;47.870;16.058;2024-01-15T04:49:45;95763.50;;;-1.42;91.37
49515;BME280;35415;47.870;16.058;2024-01-15T04:52:14;95766.38;;;-1.32;91.59
49515;BME280;35415;47.870;16.058;2024-01-15T04:54:42;95748.47;;;-1.18;91.77
49515;BME280;35415;47.870;16.058;2024-01-15T04:57:10;95696.66;;;-1.36;91.64
49515;BME280;35415;47.870;16.058;2024-01-15T04:59:39;95661.13;;;-1.34;90.32
49515;BME280;35415;47.870;16.058;2024-01-15T05:02:06;95674.91;;;-1.03;90.07
49515;BME280;35415;47.870;16.058;2024-01-15T05:04:34;95702.94;;;-0.62;87.20
49515;BME280;35415;47.870;16.058;2024-01-15T05:07:01;95675.44;;;-0.49;85.72
49515;BME280;35415;47.870;16.058;2024-01-15T05:09:29;95778.41;;;0.19;83.50
49515;BME280;35415;47.870;16.058;2024-01-15T05:11:57;95792.84;;;0.45;81.60
49515;BME280;35415;47.870;16.058;2024-01-15T05:14:24;95815.78;;;0.56;80.54
49515;BME280;35415;47.870;16.058;2024-01-15T05:16:53;95676.31;;;0.02;76.11
49515;BME280;35415;47.870;16.058;2024-01-15T05:19:20;95782.56;;;0.82;74.59
49515;BME280;35415;47.870;16.058;2024-01-15T05:21:48;95773.56;;;0.83;73.79
49515;BME280;35415;47.870;16.058;2024-01-15T05:24:15;95787.03;;;0.99;72.35
49515;BME280;35415;47.870;16.058;2024-01-15T05:26:43;95765.31;;;0.97;71.22
49515;BME280;35415;47.870;16.058;2024-01-15T05:29:10;95746.78;;;0.80;68.86
49515;BME280;35415;47.870;16.058;2024-01-15T05:31:38;95814.38;;;1.21;68.30
49515;BME280;35415;47.870;16.058;2024-01-15T05:34:07;95746.22;;;0.95;66.17
49515;BME280;35415;47.870;16.058;2024-01-15T05:36:34;95805.59;;;1.37;65.08
49515;BME280;35415;47.870;16.058;2024-01-15T05:39:02;95760.88;;;1.19;65.56
49515;BME280;35415;47.870;16.058;2024-01-15T05:41:29;95727.13;;;0.93;65.16
49515;BME280;35415;47.870;16.058;2024-01-15T05:43:57;95693.63;;;0.81;65.53
49515;BME280;35415;47.870;16.058;2024-01-15T05:46:24;95801.22;;;1.48;64.82
49515;BME280;35415;47.870;16.058;2024-01-15T05:48:52;95702.13;;;0.83;64.86
49515;BME280;35415;47.870;16.058;2024-01-15T05:51:20;95760.63;;;1.20;63.77
49515;BME280;35415;47.870;16.058;2024-01-15T05:53:48;95768.81;;;1.19;63.95
49515;BME280;35415;47.870;16.058;2024-01-15T05:56:16;95806.50;;;1.48;64.22
49515;BME280;35415;47.870;16.058;2024-01-15T05:58:43;95823.31;;;1.54;64.53
49515;BME280;35415;47.870;16.058;2024-01-15T06:01:10;95784.31;;;1.32;65.25
49515;BME280;35415;47.870;16.058;2024-01-15T06:03:37;95808.38;;;1.47;64.58
49515;BME280;35415;47.870;16.058;2024-01-15T06:06:05;95777.84;;;1.23;64.50
49515;BME280;35415;47.870;16.058;2024-01-15T06:08:34;95764.31;;;1.19;63.15
49515;BME280;35415;47.870;16.058;2024-01-15T06:11:02;95719.81;;;1.00;62.59
49515;BME280;35415;47.870;16.058;2024-01-15T06:13:29;95816.06;;;1.49;62.60
49515;BME280;35415;47.870;16.058;2024-01-15T06:15:56;95810.84;;;1.54;61.65
49515;BME280;35415;47.870;16.058;2024-01-15T06:18:24;95831.59;;;1.62;61.60
49515;BME280;35415;47.870;16.058;2024-01-15T06:20:51;95719.25;;;0.98;61.83
49515;BME280;35415;47.870;16.058;2024-01-15T06:23:19;95748.59;;;1.13;60.44
49515;BME280;35415;47.870;16.058;2024-01-15T06:25:48;95772.50;;;1.18;61.11
49515;BME280;35415;47.870;16.058;2024-01-15T06:28:15;95802.47;;;1.40;60.18
49515;BME280;35415;47.870;16.058;2024-01-15T06:30:42;95793.50;;;1.25;60.26
49515;BME280;35415;47.870;16.058;2024-01-15T06:33:10;95839.31;;;1.64;59.58
49515;BME280;35415;47.870;16.058;2024-01-15T06:35:37;95862.91;;;1.65;59.58
49515;BME280;35415;47.870;16.058;2024-01-15T06:38:05;95870.88;;;1.65;58.73
49515;BME280;35415;47.870;16.058;2024-01-15T06:40:32;95775.28;;;1.28;58.46
49515;BME280;35415;47.870;16.058;2024-01-15T06:43:02;95820.34;;;1.33;58.32
49515;BME280;35415;47.870;16.058;2024-01-15T06:45:29;95860.56;;;1.47;57.83
49515;BME280;35415;47.870;16.058;2024-01-15T06:47:57;95878.25;;;1.63;58.14
49515;BME280;35415;47.870;16.058;2024-01-15T06:50:25;95861.63;;;1.68;57.42
49515;BME280;35415;47.870;16.058;2024-01-15T06:52:52;95856.81;;;1.65;57.92
49515;BME280;35415;47.870;16.058;2024-01-15T06:55:20;95839.19;;;1.54;57.87
49515;BME280;35415;47.870;16.058;2024-01-15T06:57:47;95813.16;;;1.29;57.92
49515;BME280;35415;47.870;16.058;2024-01-15T07:00:18;95813.16;;;1.29;57.47
49515;BME280;35415;47.870;16.058;2024-01-15T07:02:46;95880.13;;;1.63;57.29
49515;BME280;35415;47.870;16.058;2024-01-15T07:05:14;95876.34;;;1.59;56.60
49515;BME280;35415;47.870;16.058;2024-01-15T07:07:41;95874.00;;;1.62;57.03
49515;BME280;35415;47.870;16.058;2024-01-15T07:10:09;95793.13;;;0.99;56.53
49515;BME280;35415;47.870;16.058;2024-01-15T07:12:37;95885.13;;;1.59;56.68
49515;BME280;35415;47.870;16.058;2024-01-15T07:15:05;95888.41;;;1.49;57.41
49515;BME280;35415;47.870;16.058;2024-01-15T07:17:35;95881.84;;;1.52;57.13
49515;BME280;35415;47.870;16.058;2024-01-15T07:20:06;95899.34;;;1.53;57.18
49515;BME280;35415;47.870;16.058;2024-01-15T07:22:35;95908.16;;;1.59;57.02
49515;BME280;35415;47.870;16.058;2024-01-15T07:25:04;95906.88;;;1.61;56.68
49515;BME280;35415;47.870;16.058;2024-01-15T07:27:32;95871.50;;;1.34;56.68
49515;BME280;35415;47.870;16.058;2024-01-15T07:30:00;95904.88;;;1.52;57.19
49515;BME280;35415;47.870;16.058;2024-01-15T07:32:30;95909.50;;;1.61;56.63
49515;BME280;35415;47.870;16.058;2024-01-15T07:34:59;95875.84;;;1.40;56.75
49515;BME280;35415;47.870;16.058;2024-01-15T07:37:26;95921.97;;;1.61;56.52
49515;BME280;35415;47.870;16.058;2024-01-15T07:39:54;95901.88;;;1.65;56.42
49515;BME280;35415;47.870;16.058;2024-01-15T07:42:21;95911.91;;;1.63;56.82
49515;BME280;35415;47.870;16.058;2024-01-15T07:44:49;95867.00;;;1.34;56.76
49515;BME280;35415;47.870;16.058;2024-01-15T07:47:17;95902.00;;;1.53;56.64
49515;BME280;35415;47.870;16.058;2024-01-15T07:49:45;95908.72;;;1.61;56.45
49515;BME280;35415;47.870;16.058;2024-01-15T07:52:14;95913.78;;;1.62;56.77
49515;BME280;35415;47.870;16.058;2024-01-15T07:54:41;95919.88;;;1.63;57.09
49515;BME280;35415;47.870;16.058;2024-01-15T07:57:08;95910.81;;;1.59;56.54
49515;BME280;35415;47.870;16.058;2024-01-15T07:59:36;95931.75;;;1.60;56.63
49515;BME280;35415;47.870;16.058;2024-01-15T08:02:03;95910.66;;;1.48;56.87
49515;BME280;35415;47.870;16.058;2024-01-15T08:04:30;95884.19;;;1.32;57.13
49515;BME280;35415;47.870;16.058;2024-01-15T08:06:58;95896.59;;;1.48;56.55
49515;BME280;35415;47.870;16.058;2024-01-15T08:09:27;95878.56;;;1.28;57.46
49515;BME280;35415;47.870;16.058;2024-01-15T08:11:55;95929.53;;;1.52;57.64
49515;BME280;35415;47.870;16.058;2024-01-15T08:14:22;95908.56;;;1.50;57.23
49515;BME280;35415;47.870;16.058;2024-01-15T08:16:50;95908.81;;;1.49;56.92
49515;BME280;35415;47.870;16.058;2024-01-15T08:19:18;95908.75;;;1.44;57.21
49515;BME280;35415;47.870;16.058;2024-01-15T08:21:45;95907.69;;;1.45;57.56
49515;BME280;35415;47.870;16.058;2024-01-15T08:24:13;95912.19;;;1.44;57.95
49515;BME280;35415;47.870;16.058;2024-01-15T08:26:42;95841.13;;;1.03;57.86
49515;BME280;35415;47.870;16.058;2024-01-15T08:29:09;95904.09;;;1.34;57.75
49515;BME280;35415;47.870;16.058;2024-01-15T08:31:37;95908.97;;;1.42;57.64
49515;BME280;35415;47.870;16.058;2024-01-15T08:34:04;95909.78;;;1.43;57.93
49515;BME280;35415;47.870;16.058;2024-01-15T08:36:32;95894.94;;;1.42;57.60
49515;BME280;35415;47.870;16.058;2024-01-15T08:39:01;95902.00;;;1.36;58.19
49515;BME280;35415;47.870;16.058;2024-01-15T08:41:31;95874.75;;;1.19;57.72
49515;BME280;35415;47.870;16.058;2024-01-15T08:44:00;95806.00;;;0.90;57.89
49515;BME280;35415;47.870;16.058;2024-01-15T08:46:28;95904.06;;;1.51;57.23
49515;BME280;35415;47.870;16.058;2024-01-15T08:48:55;95839.50;;;1.18;57.47
49515;BME280;35415;47.870;16.058;2024-01-15T08:51:23;95894.03;;;1.53;57.19
49515;BME280;35415;47.870;16.058;2024-01-15T08:53:50;95898.31;;;1.54;57.02
49515;BME280;35415;47.870;16.058;2024-01-15T08:56:18;95883.75;;;1.57;56.45
49515;BME280;35415;47.870;16.058;2024-01-15T08:58:46;95886.16;;;1.58;57.00
49515;BME280;35415;47.870;16.058;2024-01-15T09:01:15;95829.84;;;1.29;57.02
49515;BME280;35415;47.870;16.058;2024-01-15T09:03:42;95833.28;;;1.30;56.96
49515;BME280;35415;47.870;16.058;2024-01-15T09:06:10;95798.66;;;1.14;57.42
49515;BME280;35415;47.870;16.058;2024-01-15T09:08:37;95893.03;;;1.76;56.69
49515;BME280;35415;47.870;16.058;2024-01-15T09:11:05;95885.38;;;1.79;56.41
49515;BME280;35415;47.870;16.058;2024-01-15T09:13:32;95859.97;;;1.62;56.39
49515;BME280;35415;47.870;16.058;2024-01-15T09:16:00;95843.25;;;1.61;56.59
49515;BME280;35415;47.870;16.058;2024-01-15T09:18:29;95837.41;;;1.59;56.62
49515;BME280;35415;47.870;16.058;2024-01-15T09:20:57;95846.78;;;1.67;56.23
49515;BME280;35415;47.870;16.058;2024-01-15T09:23:25;95816.50;;;1.63;56.46
49515;BME280;35415;47.870;16.058;2024-01-15T09:25:52;95882.84;;;2.11;55.71
49515;BME280;35415;47.870;16.058;2024-01-15T09:28:20;95877.59;;;2.17;56.23
49515;BME280;35415;47.870;16.058;2024-01-15T09:30:48;95863.50;;;2.11;55.98
49515;BME280;35415;47.870;16.058;2024-01-15T09:33:16;95892.03;;;2.26;56.70
49515;BME280;35415;47.870;16.058;2024-01-15T09:35:45;95869.72;;;2.22;56.02
49515;BME280;35415;47.870;16.058;2024-01-15T09:38:12;95884.22;;;2.36;55.81
49515;BME280;35415;47.870;16.058;2024-01-15T09:40:43;95887.16;;;2.39;56.11
49515;BME280;35415;47.870;16.058;2024-01-15T09:43:11;95844.53;;;2.24;54.99
49515;BME280;35415;47.870;16.058;2024-01-15T09:45:40;95838.69;;;2.22;54.80
49515;BME280;35415;47.870;16.058;2024-01-15T09:48:08;95786.28;;;2.07;54.97
49515;BME280;35415;47.870;16.058;2024-01-15T09:50:35;95811.59;;;2.20;54.84
49515;BME280;35415;47.870;16.058;2024-01-15T09:53:05;95817.63;;;2.37;55.01
49515;BME280;35415;47.870;16.058;2024-01-15T09:55:33;95782.91;;;2.17;54.93
49515;BME280;35415;47.870;16.058;2024-01-15T09:58:00;95766.28;;;2.00;54.25
49515;BME280;35415;47.870;16.058;2024-01-15T10:00:29;95834.03;;;2.61;54.17
49515;BME280;35415;47.870;16.058;2024-01-15T10:02:57;95848.34;;;2.60;54.11
49515;BME280;35415;47.870;16.058;2024-01-15T10:05:26;95849.25;;;2.71;54.40
49515;BME280;35415;47.870;16.058;2024-01-15T10:07:54;95837.25;;;2.68;54.92
49515;BME280;35415;47.870;16.058;2024-01-15T10:10:25;95788.56;;;2.26;54.69
49515;BME280;35415;47.870;16.058;2024-01-15T10:12:53;95852.97;;;2.70;54.59
49515;BME280;35415;47.870;16.058;2024-01-15T10:15:22;95790.03;;;2.38;54.16
49515;BME280;35415;47.870;16.058;2024-01-15T10:17:52;95814.88;;;2.59;54.47
49515;BME280;35415;47.870;16.058;2024-01-15T10:20:20;95746.34;;;2.19;54.77
49515;BME280;35415;47.870;16.058;2024-01-15T10:22:50;95737.78;;;2.12;54.72
49515;BME280;35415;47.870;16.058;2024-01-15T10:25:18;95807.75;;;2.65;55.04
49515;BME280;35415;47.870;16.058;2024-01-15T10:28:01;95784.28;;;2.52;55.44
49515;BME280;35415;47.870;16.058;2024-01-15T10:30:28;95800.16;;;2.74;55.19
49515;BME280;35415;47.870;16.058;2024-01-15T10:33:00;95808.41;;;2.77;55.18
49515;BME280;35415;47.870;16.058;2024-01-15T10:35:29;95758.56;;;2.52;55.05
49515;BME280;35415;47.870;16.058;2024-01-15T10:37:58;95791.75;;;2.87;54.83
49515;BME280;35415;47.870;16.058;2024-01-15T10:40:25;95791.00;;;2.91;55.23
49515;BME280;35415;47.870;16.058;2024-01-15T10:42:53;95758.94;;;2.66;54.45
49515;BME280;35415;47.870;16.058;2024-01-15T10:45:22;95746.75;;;2.70;54.82
49515;BME280;35415;47.870;16.058;2024-01-15T10:47:50;95760.63;;;2.82;54.87
49515;BME280;35415;47.870;16.058;2024-01-15T10:50:18;95722.88;;;2.70;54.10
49515;BME280;35415;47.870;16.058;2024-01-15T10:52:46;95756.78;;;3.00;54.22
49515;BME280;35415;47.870;16.058;2024-01-15T10:55:13;95698.41;;;2.68;53.96
49515;BME280;35415;47.870;16.058;2024-01-15T10:57:41;95786.16;;;3.25;53.25
49515;BME280;35415;47.870;16.058;2024-01-15T11:00:10;95734.16;;;2.92;52.89
49515;BME280;35415;47.870;16.058;2024-01-15T11:02:42;95794.16;;;3.30;53.06
49515;BME280;35415;47.870;16.058;2024-01-15T11:05:10;95783.22;;;3.22;53.21
49515;BME280;35415;47.870;16.058;2024-01-15T11:07:39;95788.28;;;3.23;53.25
49515;BME280;35415;47.870;16.058;2024-01-15T11:10:08;95787.78;;;3.31;53.31
49515;BME280;35415;47.870;16.058;2024-01-15T11:13:18;95782.25;;;3.38;53.54
49515;BME280;35415;47.870;16.058;2024-01-15T11:15:59;95765.69;;;3.26;53.06
49515;BME280;35415;47.870;16.058;2024-01-15T11:18:30;95789.97;;;3.40;53.31
49515;BME280;35415;47.870;16.058;2024-01-15T11:21:25;95762.00;;;3.32;53.24
49515;BME280;35415;47.870;16.058;2024-01-15T11:23:55;95760.94;;;3.33;53.03
49515;BME280;35415;47.870;16.058;2024-01-15T11:26:35;95718.25;;;2.97;53.22
49515;BME280;35415;47.870;16.058;2024-01-15T11:29:03;95681.22;;;2.76;53.03
49515;BME280;35415;47.870;16.058;2024-01-15T11:32:05;95763.28;;;3.19;53.21
49515;BME280;35415;47.870;16.058;2024-01-15T11:35:08;95759.81;;;3.19;53.74
49515;BME280;35415;47.870;16.058;2024-01-15T11:37:57;95774.50;;;3.31;53.64
49515;BME280;35415;47.870;16.058;2024-01-15T11:40:38;95772.34;;;3.28;54.16
49515;BME280;35415;47.870;16.058;2024-01-15T11:43:08;95750.00;;;3.19;54.17
49515;BME280;35415;47.870;16.058;2024-01-15T11:45:36;95748.38;;;3.18;54.53
49515;BME280;35415;47.870;16.058;2024-01-15T11:48:12;95712.94;;;2.97;54.11
49515;BME280;35415;47.870;16.058;2024-01-15T11:50:42;95702.47;;;2.81;54.39
49515;BME280;35415;47.870;16.058;2024-01-15T11:53:16;95673.13;;;2.55;54.35
49515;BME280;35415;47.870;16.058;2024-01-15T11:55:45;95749.41;;;3.12;54.76
49515;BME280;35415;47.870;16.058;2024-01-15T11:58:14;95764.00;;;3.10;54.63
49515;BME280;35415;47.870;16.058;2024-01-15T12:00:44;95757.13;;;3.14;54.89
49515;BME280;35415;47.870;16.058;2024-01-15T12:03:11;95735.56;;;3.05;54.95
49515;BME280;35415;47.870;16.058;2024-01-15T12:05:41;95648.19;;;2.56;54.77
49515;BME280;35415;47.870;16.058;2024-01-15T12:08:09;95752.88;;;3.13;54.79
49515;BME280;35415;47.870;16.058;2024-01-15T12:10:37;95705.47;;;2.89;54.77
49515;BME280;35415;47.870;16.058;2024-01-15T12:13:10;95736.94;;;3.13;54.31
49515;BME280;35415;47.870;16.058;2024-01-15T12:15:38;95748.34;;;3.13;54.71
49515;BME280;35415;47.870;16.058;2024-01-15T12:18:08;95709.19;;;2.93;54.01
49515;BME280;35415;47.870;16.058;2024-01-15T12:20:35;95632.72;;;2.48;54.10
49515;BME280;35415;47.870;16.058;2024-01-15T12:23:04;95698.25;;;2.85;54.16
49515;BME280;35415;47.870;16.058;2024-01-15T12:25:33;95681.50;;;2.79;54.60
49515;BME280;35415;47.870;16.058;2024-01-15T12:28:01;95731.06;;;3.06;53.95
49515;BME280;35415;47.870;16.058;2024-01-15T12:30:30;95714.78;;;2.97;53.90
49515;BME280;35415;47.870;16.058;2024-01-15T12:32:58;95727.53;;;2.95;53.65
49515;BME280;35415;47.870;16.058;2024-01-15T12:35:28;95722.78;;;3.02;53.63
49515;BME280;35415;47.870;16.058;2024-01-15T12:37:56;95688.38;;;2.75;53.08
49515;BME280;35415;47.870;16.058;2024-01-15T12:40:24;95698.28;;;2.90;52.99
49515;BME280;35415;47.870;16.058;2024-01-15T12:42:52;95721.69;;;2.93;52.92
49515;BME280;35415;47.870;16.058;2024-01-15T12:45:19;95683.63;;;2.82;53.28
49515;BME280;35415;47.870;16.058;2024-01-15T12:47:46;95621.00;;;2.39;53.40
49515;BME280;35415;47.870;16.058;2024-01-15T12:50:14;95657.19;;;2.55;53.24
49515;BME280;35415;47.870;16.058;2024-01-15T12:52:41;95661.97;;;2.53;53.11
49515;BME280;35415;47.870;16.058;2024-01-15T12:55:10;95626.84;;;2.36;53.10
49515;BME280;35415;47.870;16.058;2024-01-15T12:57:39;95687.31;;;2.71;53.55
49515;BME280;35415;47.870;16.058;2024-01-15T13:00:07;95624.41;;;2.34;53.27
49515;BME280;35415;47.870;16.058;2024-01-15T13:02:38;95672.72;;;2.74;53.38